首页
METAR-TAF:

METAR-TAF

机场 :

Kenora, 安大略省, 加拿大

纬度: 49-47N, 经度: 094-22W, 海拔: 407米

当前天气观测

该预报发布于28分钟前的03:00 UTC
风速5节,风向南转南东
温度 17°C
湿度 36%
气压 1017 hPa
能見度: 32.2公里
少量云层高于12000英尺
散云层高于23000英尺

METAR: CYQK 010300Z 15005KT 20SM FEW120 SCT230 17/02 A3002 RMK AC1CI3 SLP170 DENSITY ALT 1800FT

时间: 22:28 (03:28 UTC)

预报

该预报发布于2小时和3分钟前的01:25 UTC
预报有效从01日的 02点(UTC)到 01日的 14点(UTC)
风速5节,风向西南
能見度: 10公里
散云层高于25000英尺
从 01日的 0600点(UTC)
风速3节,风向南转南东
能見度: 10公里
散云层高于5000英尺
多云层高于16000英尺

TAF: CYQK 010125Z 0102/0114 22005KT P6SM SCT250 FM010600 15003KT P6SM SCT050 BKN160 RMK NXT FCST BY 010800Z

超过4000个机场的气象观测和天气预报(METAR&TAF报告)。

可查询的气象台以黄色和红色小点在地图上表示。

将鼠标移到小点上方,可查看气象台名称。

然后点击查看天气观测和预报。

如需切换地图:点击带黑十字的绿色按钮放大地图;点击带横线的绿色按钮缩小地图;或者点击绿色箭头查看邻近地区的地图。


METAR-TAF: